This is the latest recevied weather packets stored in our database for station/object N5ATR. If no packets are shown the sender has not sent any weather packets the latest 10 day(s).
| Time | Temp. | Humidity | Pressure | Rain* | Wind** | Luminosity | Snow |
|---|---|---|---|---|---|---|---|
| 1777142799 | 17.78° C | 23% | 1011.7 hPa | 0 mm | - | 831 W/m² | - |
| 1777142497 | 17.22° C | 23% | 1011.7 hPa | 0 mm | - | 785 W/m² | - |
| 1777142196 | 17.78° C | 22% | 1011.9 hPa | 0 mm | - | 803 W/m² | - |
| 1777141892 | 16.67° C | 23% | 1011.8 hPa | 0 mm | - | 836 W/m² | - |
| 1777141590 | 17.22° C | 23% | 1011.9 hPa | 0 mm | - | 532 W/m² | - |
| 1777141289 | 16.67° C | 23% | 1012.1 hPa | 0 mm | - | 719 W/m² | - |
| 1777140985 | 16.11° C | 23% | 1011.9 hPa | 0 mm | - | 542 W/m² | - |
| 1777140682 | 16.67° C | 23% | 1011.9 hPa | 0 mm | - | 643 W/m² | - |
| 1777140378 | 17.22° C | 23% | 1012.2 hPa | 0 mm | - | 782 W/m² | - |
| 1777140076 | 16.67° C | 24% | 1012.3 hPa | 0 mm | - | 677 W/m² | - |
| 1777139774 | 16.67° C | 23% | 1012.4 hPa | 0 mm | - | 639 W/m² | - |
| 1777139469 | 16.11° C | 24% | 1012.1 hPa | 0 mm | - | 388 W/m² | - |
| 1777139164 | 16.67° C | 23% | 1012.3 hPa | 0 mm | - | 571 W/m² | - |
| 1777138862 | 16.11° C | 23% | 1012.2 hPa | 0 mm | - | 331 W/m² | - |
| 1777138557 | 17.22° C | 23% | 1012.3 hPa | 0 mm | - | 611 W/m² | - |
| 1777138253 | 17.22° C | 22% | 1012.4 hPa | 0 mm | - | 790 W/m² | - |
| 1777137950 | 16.67° C | 23% | 1012.5 hPa | 0 mm | - | 747 W/m² | - |
| 1777137645 | 17.22° C | 23% | 1012.4 hPa | 0 mm | - | 722 W/m² | - |
| 1777137343 | 16.67° C | 23% | 1012.5 hPa | 0 mm | - | 698 W/m² | - |
| 1777137039 | 16.11° C | 24% | 1012.5 hPa | 0 mm | - | 693 W/m² | - |
| 1777136736 | 16.11° C | 23% | 1012.4 hPa | 0 mm | - | 658 W/m² | - |
| 1777136434 | 16.11° C | 23% | 1012.5 hPa | 0 mm | - | 699 W/m² | - |
| 1777136131 | 15.56° C | 23% | 1012.4 hPa | 0 mm | - | 669 W/m² | - |
| 1777135828 | 16.11° C | 25% | 1012.5 hPa | 0 mm | - | 581 W/m² | - |
| 1777135523 | 15.56° C | 26% | 1012.5 hPa | 0 mm | - | 598 W/m² | - |
* Rain latest hour (hover to see other rain measurements)
** Current wind speed in m/s (hover to see current wind gust speed)